Time;durP1;ratioP1;P1;durP2;ratioP2;P2;SDS_P1;SDS_P2;PMS_P1;PMS_P2;Temp;Humidity;BMP_temperature;BMP_pressure;BME280_temperature;BME280_humidity;BME280_pressure;Samples;Min_cycle;Max_cycle;Signal;HPM_P1;HPM_P2
2022/10/31 00:01:26;;;;;;;62.77;31.50;;;13.80;99.90;;;;;;5118554;27;20785;-74
2022/10/31 00:03:52;;;;;;;62.23;30.67;;;13.80;99.90;;;;;;5118385;27;20407;-74
2022/10/31 00:06:18;;;;;;;62.67;32.13;;;13.70;99.90;;;;;;5118380;27;20492;-74
2022/10/31 00:08:55;;;;;;;57.07;29.83;;;13.70;99.90;;;;;;5118284;27;20495;-70
2022/10/31 00:11:22;;;;;;;51.10;28.70;;;13.60;99.90;;;;;;5118446;27;20205;-71
2022/10/31 00:13:48;;;;;;;64.93;29.77;;;13.60;99.90;;;;;;5118189;27;20415;-70
2022/10/31 00:16:17;;;;;;;66.40;33.07;;;13.60;99.90;;;;;;5118272;27;20954;-72
2022/10/31 00:18:43;;;;;;;72.80;33.17;;;13.60;99.90;;;;;;5118109;27;20418;-74
2022/10/31 00:21:09;;;;;;;60.43;32.50;;;13.60;99.90;;;;;;5136360;27;20812;-71
2022/10/31 00:23:35;;;;;;;66.83;32.60;;;13.60;99.90;;;;;;5136401;27;20403;-74
2022/10/31 00:26:02;;;;;;;64.20;33.37;;;13.60;99.90;;;;;;5136255;27;20465;-71
2022/10/31 00:28:30;;;;;;;60.03;32.87;;;13.60;99.90;;;;;;5117918;27;20729;-71
2022/10/31 00:31:01;;;;;;;60.00;32.23;;;13.60;99.90;;;;;;5117344;27;20463;-74
2022/10/31 00:33:28;;;;;;;64.07;33.47;;;13.60;99.90;;;;;;5136217;27;20414;-70
2022/10/31 00:35:54;;;;;;;73.67;33.93;;;13.60;99.90;;;;;;5117839;27;20462;-74
2022/10/31 00:38:19;;;;;;;60.97;31.40;;;13.60;99.90;;;;;;5117718;27;20431;-70
2022/10/31 00:40:45;;;;;;;67.93;32.80;;;13.60;99.90;;;;;;5118038;27;20447;-71
2022/10/31 00:43:11;;;;;;;69.73;31.00;;;13.60;99.90;;;;;;5117711;27;20224;-73
2022/10/31 00:45:36;;;;;;;67.40;32.23;;;13.70;99.90;;;;;;5136167;27;20282;-74
2022/10/31 00:48:02;;;;;;;65.13;33.60;;;13.70;99.90;;;;;;5135852;27;20233;-70
2022/10/31 00:50:28;;;;;;;60.70;30.60;;;13.70;99.90;;;;;;5117529;27;20210;-74
2022/10/31 00:52:53;;;;;;;57.03;29.60;;;13.70;99.90;;;;;;5117380;27;20246;-74
2022/10/31 00:55:19;;;;;;;64.60;31.47;;;13.70;99.90;;;;;;5135668;27;20194;-75
2022/10/31 00:57:48;;;;;;;64.33;29.43;;;13.70;99.90;;;;;;5135777;27;20215;-73
2022/10/31 01:00:14;;;;;;;64.80;31.40;;;13.70;99.90;;;;;;5117228;27;20239;-71
2022/10/31 01:02:40;;;;;;;64.40;31.87;;;13.70;99.90;;;;;;5117323;27;20435;-70
2022/10/31 01:05:05;;;;;;;65.83;30.83;;;13.70;99.90;;;;;;5116986;27;20427;-74
2022/10/31 01:07:31;;;;;;;62.57;30.10;;;13.70;99.90;;;;;;5135498;27;20259;-71
2022/10/31 01:09:57;;;;;;;64.53;32.30;;;13.70;99.90;;;;;;5135383;27;20202;-74
2022/10/31 01:12:22;;;;;;;64.20;30.30;;;13.70;99.90;;;;;;5135966;27;20185;-71
2022/10/31 01:14:48;;;;;;;67.07;33.80;;;13.70;99.90;;;;;;5135348;27;20191;-71
2022/10/31 01:17:14;;;;;;;64.67;33.77;;;13.70;99.90;;;;;;5117207;27;20191;-72
2022/10/31 01:19:40;;;;;;;63.87;31.00;;;13.70;99.90;;;;;;5135440;27;20663;-74
2022/10/31 01:22:05;;;;;;;60.83;30.63;;;13.70;99.90;;;;;;5135299;27;20411;-75
2022/10/31 01:24:31;;;;;;;64.93;30.60;;;13.70;99.90;;;;;;5135226;27;20195;-74
2022/10/31 01:26:57;;;;;;;54.43;30.83;;;13.70;99.90;;;;;;5117044;27;20246;-71
2022/10/31 01:29:22;;;;;;;60.40;30.37;;;13.70;99.90;;;;;;5134895;27;20489;-74
2022/10/31 01:31:48;;;;;;;58.27;28.27;;;13.70;99.90;;;;;;5135528;27;20175;-71
2022/10/31 01:34:16;;;;;;;56.73;29.73;;;13.70;99.90;;;;;;5134950;27;20579;-74
2022/10/31 01:36:43;;;;;;;60.50;28.03;;;13.70;99.90;;;;;;5116736;27;20640;-71
2022/10/31 01:39:13;;;;;;;59.83;29.67;;;13.70;99.90;;;;;;5134924;27;20403;-74
2022/10/31 01:41:42;;;;;;;55.60;32.63;;;13.70;99.90;;;;;;5116667;27;20966;-74
2022/10/31 01:44:28;;;;;;;61.73;30.50;;;13.70;99.90;;;;;;5116534;27;20415;-74
2022/10/31 01:46:59;;;;;;;67.40;28.60;;;13.70;99.90;;;;;;5117501;27;20428;-74
2022/10/31 01:49:33;;;;;;;57.53;27.90;;;13.70;99.90;;;;;;5116375;27;20475;-71
2022/10/31 01:52:13;;;;;;;58.07;28.10;;;13.60;99.90;;;;;;5135440;27;20411;-71
2022/10/31 01:54:43;;;;;;;56.67;28.83;;;13.60;99.90;;;;;;5116647;27;20947;-71
2022/10/31 01:57:12;;;;;;;59.50;28.13;;;13.60;99.90;;;;;;5116636;28;20439;-71
2022/10/31 01:59:43;;;;;;;61.60;28.57;;;13.60;99.90;;;;;;5134731;27;20427;-71
2022/10/31 02:02:10;;;;;;;61.10;29.33;;;13.50;99.90;;;;;;5135340;27;20407;-74
2022/10/31 02:04:36;;;;;;;60.20;27.80;;;13.50;99.90;;;;;;5134682;27;20489;-71
2022/10/31 02:07:15;;;;;;;52.40;27.23;;;13.40;99.90;;;;;;5135089;28;20472;-75
2022/10/31 02:09:43;;;;;;;64.10;28.80;;;13.40;99.90;;;;;;5134753;27;20426;-71
2022/10/31 02:12:10;;;;;;;57.40;30.33;;;13.40;99.90;;;;;;5116567;28;20445;-72
2022/10/31 02:14:37;;;;;;;56.87;29.03;;;13.30;99.90;;;;;;5134572;27;20911;-71
2022/10/31 02:17:03;;;;;;;53.10;29.03;;;13.30;99.90;;;;;;5116327;28;20808;-71
2022/10/31 02:19:44;;;;;;;57.37;27.93;;;13.30;99.90;;;;;;5134656;27;20471;-71
2022/10/31 02:22:37;;;;;;;58.77;28.67;;;13.30;99.90;;;;;;5116486;28;20540;-74
2022/10/31 02:25:18;;;;;;;50.93;26.67;;;13.30;99.90;;;;;;5114682;28;20441;-74
2022/10/31 02:28:02;;;;;;;53.93;26.27;;;13.20;99.90;;;;;;5116117;28;20896;-74
2022/10/31 02:30:45;;;;;;;57.43;27.40;;;13.20;99.90;;;;;;5115822;28;20486;-70
2022/10/31 02:33:38;;;;;;;51.97;27.50;;;13.10;99.90;;;;;;5115987;28;20453;-74
2022/10/31 02:36:40;;;;;;;47.67;25.50;;;13.10;99.90;;;;;;5134267;27;20437;-70
2022/10/31 02:39:22;;;;;;;47.17;25.43;;;13.10;99.90;;;;;;5115859;27;20896;-74
2022/10/31 02:41:50;;;;;;;53.37;24.87;;;13.10;99.90;;;;;;5134698;28;20920;-74
2022/10/31 02:44:27;;;;;;;54.90;24.70;;;13.10;99.90;;;;;;5134181;27;20892;-71
2022/10/31 02:46:58;;;;;;;48.50;27.00;;;13.20;99.90;;;;;;5116169;28;20754;-71
2022/10/31 02:49:32;;;;;;;47.33;25.90;;;13.20;99.90;;;;;;5115682;27;20485;-71
2022/10/31 02:51:58;;;;;;;53.33;26.70;;;13.20;99.90;;;;;;5116189;28;20456;-74
2022/10/31 02:54:26;;;;;;;44.60;23.97;;;13.20;99.90;;;;;;5117895;27;20427;-74
2022/10/31 02:57:02;;;;;;;47.43;24.83;;;13.20;99.90;;;;;;5138587;27;20427;-74
2022/10/31 02:59:30;;;;;;;47.43;25.60;;;13.20;99.90;;;;;;5119605;27;20977;-71
2022/10/31 03:01:56;;;;;;;48.00;25.47;;;13.20;99.90;;;;;;5138581;27;20766;-71
2022/10/31 03:04:48;;;;;;;45.47;24.70;;;13.20;99.90;;;;;;5119640;27;20486;-71
2022/10/31 03:07:55;;;;;;;47.53;26.53;;;13.30;99.90;;;;;;5119345;27;20179;-75
2022/10/31 03:10:31;;;;;;;44.00;24.40;;;13.30;99.90;;;;;;5118568;27;20513;-71
2022/10/31 03:13:04;;;;;;;48.90;24.90;;;13.30;99.90;;;;;;5137892;27;20914;-74
2022/10/31 03:15:34;;;;;;;45.80;24.10;;;13.30;99.90;;;;;;5119383;27;20466;-74
2022/10/31 03:18:07;;;;;;;46.70;23.10;;;13.30;99.90;;;;;;5119269;27;20574;-75
2022/10/31 03:20:55;;;;;;;46.60;22.60;;;13.30;99.90;;;;;;5137871;27;20462;-71
2022/10/31 03:23:24;;;;;;;53.13;25.77;;;13.30;99.90;;;;;;5119203;27;20540;-76
2022/10/31 03:25:52;;;;;;;46.23;23.90;;;13.30;99.90;;;;;;5137313;27;20824;-76
2022/10/31 03:28:24;;;;;;;52.37;26.10;;;13.30;99.90;;;;;;5137337;27;20546;-76
2022/10/31 03:30:52;;;;;;;52.57;24.87;;;13.30;99.90;;;;;;5119121;27;20986;-77
2022/10/31 03:33:21;;;;;;;53.13;27.40;;;13.30;99.90;;;;;;5137379;27;20406;-72
2022/10/31 03:35:51;;;;;;;54.73;25.53;;;13.30;99.90;;;;;;5118979;27;20420;-72
2022/10/31 03:38:19;;;;;;;45.30;25.73;;;13.40;99.90;;;;;;5118883;27;20581;-73
2022/10/31 03:40:47;;;;;;;49.20;23.60;;;13.40;99.90;;;;;;5118779;27;20430;-76
2022/10/31 03:43:24;;;;;;;46.93;24.77;;;13.40;99.90;;;;;;5137275;27;20435;-73
2022/10/31 03:45:50;;;;;;;49.00;24.50;;;13.30;99.90;;;;;;5137405;27;20791;-73
2022/10/31 03:48:19;;;;;;;45.00;23.93;;;13.30;99.90;;;;;;5118720;27;20462;-73
2022/10/31 03:50:57;;;;;;;54.33;25.93;;;13.30;99.90;;;;;;5118538;27;21034;-72
2022/10/31 03:53:32;;;;;;;52.00;25.37;;;13.30;99.90;;;;;;5118610;27;20419;-73
2022/10/31 03:56:06;;;;;;;50.67;24.33;;;13.30;99.90;;;;;;5118794;27;20495;-76
2022/10/31 03:58:40;;;;;;;45.10;23.93;;;13.20;99.90;;;;;;5137059;27;20439;-74
2022/10/31 04:01:13;;;;;;;43.60;24.53;;;13.20;99.90;;;;;;5118563;27;21012;-71
2022/10/31 04:03:39;;;;;;;45.53;23.53;;;13.10;99.90;;;;;;5118437;27;20411;-71
2022/10/31 04:06:12;;;;;;;43.40;21.93;;;13.10;99.90;;;;;;5117220;27;21030;-74
2022/10/31 04:08:44;;;;;;;40.93;23.00;;;13.10;99.90;;;;;;5118291;27;20496;-74
2022/10/31 04:11:13;;;;;;;51.60;26.90;;;13.00;99.90;;;;;;5118132;27;20959;-75
2022/10/31 04:13:40;;;;;;;51.93;24.90;;;13.00;99.90;;;;;;5118182;27;20422;-70
2022/10/31 04:16:07;;;;;;;44.83;23.93;;;13.00;99.90;;;;;;5118150;27;20526;-75
2022/10/31 04:18:33;;;;;;;45.87;24.90;;;13.00;99.90;;;;;;5136638;27;20407;-74
2022/10/31 04:21:01;;;;;;;50.60;23.23;;;13.00;99.90;;;;;;5117954;27;20439;-71
2022/10/31 04:23:27;;;;;;;44.77;23.20;;;12.90;99.90;;;;;;5118093;27;20202;-74
2022/10/31 04:25:53;;;;;;;42.13;22.33;;;13.00;99.90;;;;;;5136557;27;20471;-71
2022/10/31 04:28:19;;;;;;;40.00;21.83;;;13.00;99.90;;;;;;5136344;27;20470;-74
2022/10/31 04:30:45;;;;;;;47.77;23.60;;;13.00;99.90;;;;;;5136195;27;20454;-75
2022/10/31 04:33:10;;;;;;;44.23;21.93;;;13.00;99.90;;;;;;5117790;27;20410;-72
2022/10/31 04:35:36;;;;;;;42.03;24.73;;;12.90;99.90;;;;;;5136099;27;20202;-74
2022/10/31 04:38:02;;;;;;;45.90;23.20;;;12.90;99.90;;;;;;5136172;27;20175;-71
2022/10/31 04:40:27;;;;;;;47.23;24.77;;;12.90;99.90;;;;;;5135969;27;20187;-70
2022/10/31 04:42:53;;;;;;;45.57;23.90;;;12.90;99.90;;;;;;5136254;27;20175;-72
2022/10/31 04:45:19;;;;;;;43.43;22.80;;;12.90;99.90;;;;;;5117382;27;20190;-72
2022/10/31 04:47:44;;;;;;;50.63;24.50;;;12.90;99.90;;;;;;5117384;27;20213;-70
2022/10/31 04:50:10;;;;;;;45.57;24.60;;;12.90;99.90;;;;;;5135851;27;20199;-71
2022/10/31 04:52:43;;;;;;;45.97;22.10;;;12.90;99.90;;;;;;5117426;27;20522;-70
2022/10/31 04:55:09;;;;;;;42.57;23.37;;;12.90;99.90;;;;;;5117302;27;20702;-74
2022/10/31 04:57:46;;;;;;;47.27;23.67;;;12.90;99.90;;;;;;5135837;27;20395;-74
2022/10/31 05:00:13;;;;;;;45.67;22.47;;;12.90;99.90;;;;;;5117176;27;20422;-74
2022/10/31 05:02:52;;;;;;;46.40;22.57;;;12.90;99.90;;;;;;5135777;27;20431;-74
2022/10/31 05:05:20;;;;;;;53.23;23.60;;;12.90;99.90;;;;;;5117188;27;20435;-71
2022/10/31 05:07:47;;;;;;;51.00;26.20;;;13.00;99.90;;;;;;5135414;27;20455;-71
2022/10/31 05:10:16;;;;;;;49.47;24.90;;;13.00;99.90;;;;;;5135432;27;20439;-71
2022/10/31 05:12:49;;;;;;;49.43;25.40;;;13.00;99.90;;;;;;5117073;27;20400;-71
2022/10/31 05:15:16;;;;;;;50.87;23.73;;;13.00;99.90;;;;;;5135342;27;20423;-71
2022/10/31 05:17:43;;;;;;;49.63;23.60;;;13.00;99.90;;;;;;5116750;27;20407;-71
2022/10/31 05:20:10;;;;;;;43.13;23.10;;;13.00;99.90;;;;;;5135162;27;20426;-72
2022/10/31 05:22:35;;;;;;;46.30;24.03;;;13.00;99.90;;;;;;5135309;27;20395;-74
2022/10/31 05:25:01;;;;;;;44.27;22.53;;;13.00;99.90;;;;;;5116526;27;20947;-70
2022/10/31 05:27:26;;;;;;;43.57;23.40;;;12.90;99.90;;;;;;5117073;27;20187;-74
2022/10/31 05:29:52;;;;;;;54.00;23.20;;;12.90;99.90;;;;;;5135249;27;20198;-74
2022/10/31 05:32:18;;;;;;;51.27;21.50;;;12.90;99.90;;;;;;5135703;27;20179;-74
2022/10/31 05:34:43;;;;;;;44.00;22.97;;;12.90;99.90;;;;;;5135208;27;20266;-71
2022/10/31 05:37:09;;;;;;;42.83;23.50;;;12.90;99.90;;;;;;5116836;27;20183;-74
2022/10/31 05:39:35;;;;;;;49.53;23.90;;;12.80;99.90;;;;;;5135085;27;20195;-74
2022/10/31 05:42:00;;;;;;;50.33;24.70;;;12.80;99.90;;;;;;5116863;27;20244;-74
2022/10/31 05:44:26;;;;;;;41.83;22.23;;;12.80;99.90;;;;;;5134946;27;20199;-74
2022/10/31 05:46:51;;;;;;;51.43;23.23;;;12.80;99.90;;;;;;5135339;27;20651;-74
2022/10/31 05:49:17;;;;;;;60.87;26.40;;;12.80;99.90;;;;;;5134771;27;20686;-71
2022/10/31 05:51:43;;;;;;;49.23;24.03;;;12.70;99.90;;;;;;5135258;27;20179;-71
2022/10/31 05:54:09;;;;;;;51.73;25.50;;;12.70;99.90;;;;;;5116339;27;20939;-71
2022/10/31 05:56:34;;;;;;;53.47;24.77;;;12.70;99.90;;;;;;5134767;27;20182;-76
2022/10/31 05:59:00;;;;;;;54.83;25.17;;;12.70;99.90;;;;;;5134722;27;20250;-72
2022/10/31 06:01:25;;;;;;;57.70;28.27;;;12.70;99.90;;;;;;5116381;27;20682;-77
2022/10/31 06:03:51;;;;;;;59.27;28.53;;;12.70;99.90;;;;;;5134695;27;20167;-72
2022/10/31 06:06:16;;;;;;;57.07;25.27;;;12.70;99.90;;;;;;5116245;28;20198;-76
2022/10/31 06:08:42;;;;;;;54.20;25.27;;;12.70;99.90;;;;;;5116320;28;20207;-75
2022/10/31 06:11:08;;;;;;;60.50;26.90;;;12.70;99.90;;;;;;5134469;27;20209;-73
2022/10/31 06:13:33;;;;;;;54.27;25.80;;;12.70;99.90;;;;;;5134730;28;20175;-72
2022/10/31 06:15:59;;;;;;;59.53;24.40;;;12.70;99.90;;;;;;5116102;28;20191;-73
2022/10/31 06:18:24;;;;;;;48.90;25.70;;;12.70;99.90;;;;;;5116239;28;20182;-76
2022/10/31 06:20:50;;;;;;;65.63;29.10;;;12.70;99.90;;;;;;5115995;28;20663;-73
2022/10/31 06:23:16;;;;;;;61.87;25.67;;;12.70;99.90;;;;;;5134524;28;20163;-72
2022/10/31 06:25:41;;;;;;;54.00;24.63;;;12.70;99.90;;;;;;5115796;28;20719;-77
2022/10/31 06:28:07;;;;;;;62.97;27.13;;;12.70;99.90;;;;;;5134560;27;20616;-72
2022/10/31 06:30:33;;;;;;;58.37;24.83;;;12.70;99.90;;;;;;5120236;27;20206;-77
2022/10/31 06:33:03;;;;;;;66.47;29.13;;;12.80;99.90;;;;;;5138743;27;20209;-72
2022/10/31 06:35:29;;;;;;;59.83;26.90;;;12.80;99.90;;;;;;5120006;27;20202;-74
2022/10/31 06:37:55;;;;;;;58.30;24.70;;;12.80;99.90;;;;;;5138566;27;20414;-73
2022/10/31 06:40:22;;;;;;;56.80;26.43;;;12.80;99.90;;;;;;5138274;27;20195;-77
2022/10/31 06:42:47;;;;;;;51.77;24.77;;;12.70;99.90;;;;;;5138529;27;20406;-76
2022/10/31 06:45:13;;;;;;;66.97;27.70;;;12.80;99.90;;;;;;5138249;27;20935;-70
2022/10/31 06:47:38;;;;;;;58.17;25.30;;;12.80;99.90;;;;;;5138359;27;20272;-74
2022/10/31 06:50:05;;;;;;;55.17;25.63;;;12.80;99.90;;;;;;5138169;27;20203;-74
2022/10/31 06:52:30;;;;;;;60.57;27.40;;;12.80;99.90;;;;;;5119873;27;20251;-74
2022/10/31 06:54:56;;;;;;;55.73;26.20;;;12.80;99.90;;;;;;5138139;27;20423;-75
2022/10/31 06:57:21;;;;;;;62.00;26.00;;;12.70;99.90;;;;;;5138568;27;20185;-75
2022/10/31 06:59:47;;;;;;;56.57;25.40;;;12.70;99.90;;;;;;5138008;27;20698;-71
2022/10/31 07:02:13;;;;;;;47.43;23.00;;;12.70;99.90;;;;;;5119530;27;20187;-71
2022/10/31 07:04:38;;;;;;;50.27;24.90;;;12.80;99.90;;;;;;5137954;27;20603;-75
2022/10/31 07:07:04;;;;;;;56.03;25.30;;;12.80;99.90;;;;;;5119789;27;20219;-71
2022/10/31 07:09:30;;;;;;;55.60;27.30;;;12.80;99.90;;;;;;5137839;27;20245;-71
2022/10/31 07:11:55;;;;;;;49.13;23.97;;;12.80;99.90;;;;;;5119612;27;20540;-71
2022/10/31 07:14:21;;;;;;;53.77;26.73;;;12.80;99.90;;;;;;5137766;27;20628;-74
2022/10/31 07:16:50;;;;;;;45.93;22.37;;;12.80;99.90;;;;;;5119635;27;20182;-74
2022/10/31 07:19:16;;;;;;;43.70;22.63;;;12.80;99.90;;;;;;5137692;27;20167;-76
2022/10/31 07:21:42;;;;;;;50.63;22.17;;;12.80;99.90;;;;;;5138121;27;20425;-72
2022/10/31 07:24:08;;;;;;;44.50;20.10;;;12.80;99.90;;;;;;5119186;27;20407;-73
2022/10/31 07:26:33;;;;;;;52.30;21.20;;;12.70;99.90;;;;;;5119119;27;20305;-71
2022/10/31 07:28:59;;;;;;;52.67;23.07;;;12.80;99.90;;;;;;5137720;27;20214;-74
2022/10/31 07:31:25;;;;;;;43.07;21.13;;;12.80;99.90;;;;;;5119340;27;20229;-72
2022/10/31 07:33:51;;;;;;;52.67;23.50;;;12.80;99.90;;;;;;5137511;27;20171;-70
2022/10/31 07:36:17;;;;;;;51.77;22.10;;;12.80;99.90;;;;;;5119117;27;20458;-75
2022/10/31 07:38:42;;;;;;;51.63;23.73;;;12.80;99.90;;;;;;5137554;27;20195;-72
2022/10/31 07:41:09;;;;;;;49.20;23.63;;;12.90;99.90;;;;;;5118498;27;20203;-71
2022/10/31 07:43:35;;;;;;;44.97;22.20;;;12.90;99.90;;;;;;5118855;27;20196;-74
2022/10/31 07:46:00;;;;;;;54.80;23.17;;;12.90;99.90;;;;;;5137323;27;20479;-71
2022/10/31 07:48:26;;;;;;;53.20;23.77;;;12.90;99.90;;;;;;5118742;27;20305;-70
2022/10/31 07:50:51;;;;;;;51.13;23.30;;;12.90;99.90;;;;;;5137199;27;20195;-74
2022/10/31 07:53:17;;;;;;;61.47;25.20;;;12.90;99.90;;;;;;5137150;27;20591;-70
2022/10/31 07:55:43;;;;;;;46.57;23.00;;;12.90;99.90;;;;;;5137102;27;20325;-75
2022/10/31 07:58:12;;;;;;;46.37;23.07;;;12.90;99.90;;;;;;5137039;27;20543;-71
2022/10/31 08:00:39;;;;;;;50.80;23.33;;;13.00;99.90;;;;;;5118482;27;20800;-75
2022/10/31 08:03:10;;;;;;;47.90;21.73;;;13.00;99.90;;;;;;5118473;27;20931;-70
2022/10/31 08:05:37;;;;;;;50.47;23.13;;;13.00;99.90;;;;;;5118332;27;20837;-71
2022/10/31 08:08:04;;;;;;;53.17;23.03;;;13.00;99.90;;;;;;5118248;27;20521;-74
2022/10/31 08:10:31;;;;;;;43.97;21.30;;;13.00;99.90;;;;;;5118282;27;20497;-74
2022/10/31 08:12:59;;;;;;;50.30;23.13;;;13.00;99.90;;;;;;5136700;27;20400;-74
2022/10/31 08:15:26;;;;;;;48.00;22.47;;;13.00;99.90;;;;;;5118062;27;20526;-74
2022/10/31 08:17:51;;;;;;;54.73;24.47;;;13.00;99.90;;;;;;5136650;27;20491;-74
2022/10/31 08:20:17;;;;;;;59.83;25.43;;;13.00;99.90;;;;;;5136454;27;20464;-71
2022/10/31 08:22:43;;;;;;;61.57;25.73;;;13.00;99.90;;;;;;5136559;27;20179;-70
2022/10/31 08:25:09;;;;;;;62.77;24.07;;;13.00;99.90;;;;;;5117661;27;20286;-74
2022/10/31 08:27:34;;;;;;;45.60;23.77;;;13.00;99.90;;;;;;5136473;27;20194;-70
2022/10/31 08:30:00;;;;;;;50.80;23.77;;;13.00;99.90;;;;;;5136273;27;20197;-75
2022/10/31 08:32:26;;;;;;;52.03;23.53;;;13.00;99.90;;;;;;5136904;27;20608;-74
2022/10/31 08:34:51;;;;;;;52.27;24.20;;;13.10;99.90;;;;;;5117799;27;20199;-74
2022/10/31 08:37:19;;;;;;;57.13;24.87;;;13.10;99.90;;;;;;5136725;27;20250;-75
2022/10/31 08:39:46;;;;;;;53.67;26.17;;;13.00;99.90;;;;;;5136112;27;20195;-75
2022/10/31 08:42:12;;;;;;;57.07;24.77;;;13.10;99.90;;;;;;5136594;27;20416;-74
2022/10/31 08:44:38;;;;;;;62.77;25.13;;;13.10;99.90;;;;;;5136019;27;20512;-75
2022/10/31 08:47:03;;;;;;;55.67;22.50;;;13.10;99.90;;;;;;5117734;27;20181;-75
2022/10/31 08:49:29;;;;;;;51.00;24.87;;;13.00;99.90;;;;;;5135886;27;20890;-75
2022/10/31 08:51:55;;;;;;;70.10;39.53;;;12.90;99.90;;;;;;5135175;27;20175;-71
2022/10/31 08:54:20;;;;;;;92.00;49.63;;;12.90;99.90;;;;;;5117270;27;20171;-71
2022/10/31 08:56:46;;;;;;;42.40;20.43;;;12.90;99.90;;;;;;5117571;27;20171;-71
2022/10/31 08:59:12;;;;;;;44.30;21.97;;;12.90;99.90;;;;;;5117365;27;20640;-75
2022/10/31 09:01:37;;;;;;;47.60;22.50;;;12.90;99.90;;;;;;5117526;27;20270;-71
2022/10/31 09:04:03;;;;;;;39.43;20.10;;;12.90;99.90;;;;;;5117236;27;20171;-71
2022/10/31 09:06:28;;;;;;;54.43;25.43;;;13.00;99.90;;;;;;5135964;27;20185;-74
2022/10/31 09:08:54;;;;;;;57.60;21.77;;;13.00;99.90;;;;;;5117187;27;20210;-73
2022/10/31 09:11:19;;;;;;;53.57;23.27;;;13.00;99.90;;;;;;5117111;27;20294;-71
2022/10/31 09:13:45;;;;;;;51.50;23.13;;;13.10;99.90;;;;;;5117124;27;20171;-69
2022/10/31 09:16:11;;;;;;;57.83;24.13;;;13.10;99.90;;;;;;5135609;27;20194;-71
2022/10/31 09:18:36;;;;;;;51.07;23.13;;;13.20;99.90;;;;;;5135610;27;20195;-73
2022/10/31 09:21:02;;;;;;;50.17;23.87;;;13.20;99.90;;;;;;5116818;27;20196;-71
2022/10/31 09:23:28;;;;;;;53.50;24.07;;;13.20;99.90;;;;;;5116897;27;20183;-74
2022/10/31 09:25:54;;;;;;;58.00;24.87;;;13.10;99.90;;;;;;5116555;27;20551;-71
2022/10/31 09:28:22;;;;;;;58.47;24.20;;;13.10;99.90;;;;;;5135150;27;20469;-74
2022/10/31 09:30:50;;;;;;;65.43;26.40;;;13.20;99.90;;;;;;5135268;27;20450;-74
2022/10/31 09:33:16;;;;;;;59.43;24.30;;;13.20;99.90;;;;;;5135084;27;20402;-74
2022/10/31 09:35:42;;;;;;;57.70;23.73;;;13.20;99.90;;;;;;5134875;27;20935;-71
2022/10/31 09:38:15;;;;;;;57.50;23.83;;;13.30;99.90;;;;;;5134999;27;20174;-73
2022/10/31 09:40:44;;;;;;;52.27;23.77;;;13.30;99.90;;;;;;5135079;27;20442;-76
2022/10/31 09:43:32;;;;;;;50.33;25.90;;;13.30;99.90;;;;;;5134953;27;20503;-74
2022/10/31 09:46:09;;;;;;;45.87;22.67;;;13.20;99.90;;;;;;5135165;27;20439;-71
2022/10/31 09:49:06;;;;;;;55.10;26.40;;;13.20;99.90;;;;;;5116476;27;20455;-70
2022/10/31 09:51:40;;;;;;;57.20;24.80;;;13.20;99.90;;;;;;5116697;27;20430;-70
2022/10/31 09:54:48;;;;;;;49.57;23.07;;;13.20;99.90;;;;;;5116307;27;20415;-75
2022/10/31 09:57:18;;;;;;;57.27;21.33;;;13.30;99.90;;;;;;5102703;27;20514;-71
2022/10/31 09:59:46;;;;;;;55.23;22.20;;;13.30;99.90;;;;;;5134721;27;20455;-74
2022/10/31 10:02:35;;;;;;;47.40;21.90;;;13.40;99.90;;;;;;5135217;27;20445;-75
2022/10/31 10:05:03;;;;;;;49.70;22.53;;;13.40;99.90;;;;;;5134732;27;20530;-71
2022/10/31 10:07:32;;;;;;;50.17;21.37;;;13.40;99.90;;;;;;5116194;28;20427;-70
2022/10/31 10:09:59;;;;;;;52.73;23.00;;;13.50;99.90;;;;;;5134660;27;20593;-71
2022/10/31 10:13:14;;;;;;;46.40;22.13;;;13.40;99.90;;;;;;5116513;28;20518;-74
2022/10/31 10:16:08;;;;;;;47.03;19.30;;;13.50;99.90;;;;;;5108100;28;20438;-71
2022/10/31 10:19:01;;;;;;;42.33;20.93;;;13.50;99.90;;;;;;5116222;28;20891;-75
2022/10/31 10:21:45;;;;;;;40.70;19.63;;;13.50;99.90;;;;;;5133044;27;20479;-75
2022/10/31 10:24:20;;;;;;;39.70;19.20;;;13.60;99.90;;;;;;5133967;27;20411;-75
2022/10/31 10:27:12;;;;;;;50.17;26.23;;;13.60;99.90;;;;;;5134933;28;20519;-75
2022/10/31 10:29:52;;;;;;;44.90;20.97;;;13.60;99.90;;;;;;5095515;27;20578;-75
2022/10/31 10:32:28;;;;;;;45.30;19.13;;;13.70;99.90;;;;;;5115983;28;20441;-75
2022/10/31 10:35:17;;;;;;;45.13;20.47;;;13.70;99.90;;;;;;5134413;27;20427;-74
2022/10/31 10:37:46;;;;;;;42.00;19.47;;;13.70;99.90;;;;;;5134415;28;20787;-72
2022/10/31 10:40:18;;;;;;;45.20;22.73;;;13.80;99.90;;;;;;5115847;28;20423;-76
2022/10/31 10:43:21;;;;;;;46.63;21.30;;;13.80;99.90;;;;;;5116005;28;20411;-75
2022/10/31 10:48:46;;;;;;;44.23;20.30;;;13.90;99.90;;;;;;5134250;28;21005;-71
2022/10/31 10:51:22;;;;;;;49.83;22.03;;;13.90;99.90;;;;;;5115883;28;20857;-75
2022/10/31 10:54:20;;;;;;;43.83;19.30;;;13.90;99.90;;;;;;5115897;28;20406;-75
2022/10/31 10:57:00;;;;;;;46.10;20.63;;;14.00;99.90;;;;;;5043441;28;20428;-75
2022/10/31 10:59:26;;;;;;;50.03;21.90;;;14.00;99.90;;;;;;5134118;27;20964;-71
2022/10/31 11:01:52;;;;;;;50.13;20.40;;;14.00;99.90;;;;;;5115685;28;20463;-72
2022/10/31 11:04:26;;;;;;;49.77;22.50;;;14.10;99.90;;;;;;5134116;27;20442;-72
2022/10/31 11:07:02;;;;;;;48.00;20.83;;;14.10;99.90;;;;;;5134619;28;20187;-75
2022/10/31 11:09:27;;;;;;;46.07;21.20;;;14.10;99.90;;;;;;5134049;27;21030;-75
2022/10/31 11:11:54;;;;;;;50.23;20.73;;;14.10;99.90;;;;;;5132900;28;20419;-75
2022/10/31 11:14:20;;;;;;;54.70;23.00;;;14.10;99.90;;;;;;5116180;27;20175;-75
2022/10/31 11:16:50;;;;;;;52.70;20.03;;;14.10;99.90;;;;;;5119761;27;20442;-75
2022/10/31 11:19:26;;;;;;;39.97;19.33;;;14.10;99.90;;;;;;5138051;27;20456;-71
2022/10/31 11:21:53;;;;;;;43.80;19.57;;;14.20;99.90;;;;;;5119570;27;20434;-76
2022/10/31 11:24:22;;;;;;;39.83;21.17;;;14.20;99.90;;;;;;5137697;27;20899;-72
2022/10/31 11:26:49;;;;;;;41.27;19.90;;;14.20;99.90;;;;;;5119400;27;20829;-71
2022/10/31 11:29:24;;;;;;;40.47;20.10;;;14.30;99.90;;;;;;5137441;27;20856;-71
2022/10/31 11:31:53;;;;;;;45.30;19.37;;;14.30;99.90;;;;;;5119522;27;20422;-75
2022/10/31 11:34:27;;;;;;;39.70;20.37;;;14.30;99.90;;;;;;5137454;27;20451;-74
2022/10/31 11:36:53;;;;;;;43.37;19.70;;;14.30;99.90;;;;;;5137991;27;20755;-75
2022/10/31 11:39:22;;;;;;;44.27;20.60;;;14.30;99.90;;;;;;5118868;27;20463;-72
2022/10/31 11:41:49;;;;;;;41.00;19.20;;;14.30;99.90;;;;;;5137742;27;20254;-71
2022/10/31 11:44:25;;;;;;;45.57;18.87;;;14.30;99.90;;;;;;5137132;27;20403;-71
2022/10/31 11:47:00;;;;;;;45.67;22.03;;;14.30;99.90;;;;;;5137749;27;20422;-75
2022/10/31 11:49:37;;;;;;;48.23;21.97;;;14.40;99.90;;;;;;5118788;27;21024;-75
2022/10/31 11:52:31;;;;;;;46.50;21.73;;;14.40;99.90;;;;;;5137619;27;20455;-72
2022/10/31 11:55:14;;;;;;;40.60;18.50;;;14.40;99.90;;;;;;5133723;27;20838;-71
2022/10/31 11:57:51;;;;;;;50.40;19.73;;;14.40;99.90;;;;;;5103509;27;20466;-71
2022/10/31 12:00:25;;;;;;;41.77;19.37;;;14.40;99.90;;;;;;5118424;27;20571;-75
2022/10/31 12:03:03;;;;;;;44.13;19.73;;;14.40;99.90;;;;;;5137022;27;20426;-71
2022/10/31 12:05:32;;;;;;;43.53;22.33;;;14.50;99.90;;;;;;5118468;27;21022;-72
2022/10/31 12:07:58;;;;;;;42.00;20.77;;;14.50;99.90;;;;;;5136726;27;20466;-72
2022/10/31 12:10:33;;;;;;;40.47;20.23;;;14.50;99.90;;;;;;5118148;27;20522;-70
2022/10/31 12:13:31;;;;;;;43.90;20.47;;;14.50;99.90;;;;;;5118202;27;20415;-75
2022/10/31 12:16:08;;;;;;;41.43;20.57;;;14.50;99.90;;;;;;5136818;27;20577;-71
2022/10/31 12:18:58;;;;;;;44.33;19.80;;;14.50;99.90;;;;;;5118294;27;20976;-72
2022/10/31 12:21:49;;;;;;;38.37;20.77;;;14.50;99.90;;;;;;5136739;27;20503;-71
2022/10/31 12:24:42;;;;;;;41.07;20.27;;;14.50;99.90;;;;;;5136572;27;20410;-71
2022/10/31 12:27:38;;;;;;;44.63;20.80;;;14.50;99.90;;;;;;5135986;27;20467;-71
2022/10/31 12:30:13;;;;;;;40.70;19.47;;;14.50;99.90;;;;;;5117754;27;20816;-72
2022/10/31 12:32:43;;;;;;;45.40;22.20;;;14.50;99.90;;;;;;5136394;27;20883;-75
2022/10/31 12:35:51;;;;;;;48.13;22.00;;;14.50;99.90;;;;;;5136200;27;20437;-74
2022/10/31 12:38:47;;;;;;;44.07;22.67;;;14.50;99.90;;;;;;5136337;27;20914;-71
2022/10/31 12:41:22;;;;;;;38.93;20.73;;;14.50;99.90;;;;;;5136397;27;20950;-75
2022/10/31 12:44:09;;;;;;;48.10;20.50;;;14.50;99.90;;;;;;5117749;27;20415;-71
2022/10/31 12:47:01;;;;;;;39.50;21.30;;;14.50;99.90;;;;;;5117822;27;20834;-75
2022/10/31 12:49:44;;;;;;;35.63;18.90;;;14.50;99.90;;;;;;5117409;27;20523;-71